createdAt,value
2018-12-17T00:01:46.994Z,96.27
2018-12-17T00:04:15.825Z,89.73
2018-12-17T00:06:44.860Z,105.60
2018-12-17T00:09:13.610Z,94.53
2018-12-17T00:11:42.503Z,99.67
2018-12-17T00:14:11.386Z,97.10
2018-12-17T00:16:40.352Z,102.53
2018-12-17T00:19:09.330Z,101.97
2018-12-17T00:21:37.992Z,94.27
2018-12-17T00:24:06.915Z,100.50
2018-12-17T00:26:35.997Z,102.47
2018-12-17T00:29:04.914Z,104.27
2018-12-17T00:31:33.850Z,106.17
2018-12-17T00:34:02.612Z,98.47
2018-12-17T00:36:31.642Z,97.73
2018-12-17T00:39:00.582Z,95.13
2018-12-17T00:41:29.559Z,99.57
2018-12-17T00:43:58.921Z,100.53
2018-12-17T00:46:27.740Z,100.30
2018-12-17T00:48:56.586Z,97.07
2018-12-17T00:51:25.342Z,95.63
2018-12-17T00:53:53.989Z,111.07
2018-12-17T00:56:23.600Z,98.07
2018-12-17T00:58:52.339Z,110.13
2018-12-17T01:01:21.234Z,105.97
2018-12-17T01:03:52.265Z,103.07
2018-12-17T01:06:21.203Z,95.60
2018-12-17T01:08:50.299Z,103.60
2018-12-17T01:11:19.102Z,103.03
2018-12-17T01:13:47.933Z,104.43
2018-12-17T01:16:16.982Z,94.17
2018-12-17T01:18:45.952Z,97.00
2018-12-17T01:21:14.758Z,94.20
2018-12-17T01:23:43.693Z,100.77
2018-12-17T01:26:12.830Z,105.80
2018-12-17T01:28:42.061Z,90.97
2018-12-17T01:31:10.899Z,98.50
2018-12-17T01:33:39.779Z,98.73
2018-12-17T01:36:08.777Z,87.87
2018-12-17T01:38:37.748Z,93.10
2018-12-17T01:41:06.496Z,100.97
2018-12-17T01:43:35.286Z,97.97
2018-12-17T01:46:03.964Z,95.23
2018-12-17T01:48:33.007Z,103.03
2018-12-17T01:51:01.993Z,88.50
2018-12-17T01:53:31.006Z,99.13
2018-12-17T01:55:59.595Z,93.53
2018-12-17T01:58:29.320Z,91.03
2018-12-17T02:00:58.404Z,95.87
2018-12-17T02:03:27.556Z,85.53
2018-12-17T02:05:56.444Z,83.00
2018-12-17T02:08:25.183Z,84.43
2018-12-17T02:10:54.145Z,86.63
2018-12-17T02:13:23.056Z,83.97
2018-12-17T02:15:52.143Z,92.00
2018-12-17T02:18:21.071Z,86.73
2018-12-17T02:20:49.872Z,86.27
2018-12-17T02:23:18.743Z,90.93
2018-12-17T02:25:47.728Z,90.63
2018-12-17T02:28:16.618Z,89.10
2018-12-17T02:30:45.503Z,88.17
2018-12-17T02:33:14.626Z,93.13
2018-12-17T02:35:43.636Z,87.00
2018-12-17T02:38:12.569Z,96.17
2018-12-17T02:40:41.503Z,92.67
2018-12-17T02:43:10.335Z,99.80
2018-12-17T02:45:39.254Z,105.53
2018-12-17T02:48:08.110Z,97.33
2018-12-17T02:50:37.164Z,101.97
2018-12-17T02:53:06.252Z,108.40
2018-12-17T02:55:35.102Z,94.47
2018-12-17T02:58:04.204Z,90.77
2018-12-17T03:00:33.223Z,95.70
2018-12-17T03:03:02.063Z,83.97
2018-12-17T03:05:31.272Z,89.03
2018-12-17T03:08:00.351Z,93.47
2018-12-17T03:10:29.239Z,88.27
2018-12-17T03:12:58.101Z,87.90
2018-12-17T03:15:27.102Z,89.47
2018-12-17T03:17:56.147Z,90.80
2018-12-17T03:20:24.936Z,93.87
2018-12-17T03:22:53.687Z,85.00
2018-12-17T03:25:22.569Z,87.33
2018-12-17T03:27:51.539Z,89.23
2018-12-17T03:30:20.436Z,91.73
2018-12-17T03:32:49.319Z,86.67
2018-12-17T03:35:18.765Z,88.83
2018-12-17T03:37:47.659Z,78.07
2018-12-17T03:40:16.687Z,87.30
2018-12-17T03:42:45.624Z,95.13
2018-12-17T03:45:14.715Z,89.97
2018-12-17T03:47:43.496Z,85.57
2018-12-17T03:50:12.535Z,88.53
2018-12-17T03:52:41.419Z,85.27
2018-12-17T03:55:10.308Z,82.27
2018-12-17T03:57:39.051Z,92.90
2018-12-17T04:00:07.990Z,97.10
2018-12-17T04:02:37.050Z,93.93
2018-12-17T04:05:06.467Z,93.73
2018-12-17T04:07:35.518Z,86.10
2018-12-17T04:10:04.939Z,98.07
2018-12-17T04:12:33.896Z,90.97
2018-12-17T04:15:02.601Z,96.13
2018-12-17T04:17:31.439Z,93.47
2018-12-17T04:20:00.042Z,84.60
2018-12-17T04:22:29.183Z,91.47
2018-12-17T04:24:57.979Z,86.67
2018-12-17T04:27:26.862Z,97.03
2018-12-17T04:29:55.893Z,83.53
2018-12-17T04:32:24.718Z,88.13
2018-12-17T04:34:53.428Z,101.57
2018-12-17T04:37:22.440Z,88.27
2018-12-17T04:39:51.324Z,90.23
2018-12-17T04:42:20.562Z,95.77
2018-12-17T04:44:55.433Z,101.87
2018-12-17T04:47:24.106Z,95.00
2018-12-17T04:49:53.075Z,92.13
2018-12-17T04:52:21.828Z,91.37
2018-12-17T04:54:50.789Z,93.63
2018-12-17T04:57:19.835Z,84.60
2018-12-17T04:59:48.772Z,79.13
2018-12-17T05:02:17.643Z,76.73
2018-12-17T05:04:46.383Z,86.33
2018-12-17T05:07:15.102Z,81.20
2018-12-17T05:09:44.448Z,80.33
2018-12-17T05:12:13.486Z,80.63
2018-12-17T05:14:42.504Z,74.17
2018-12-17T05:17:11.153Z,80.50
2018-12-17T05:19:40.012Z,76.13
2018-12-17T05:22:08.927Z,72.30
2018-12-17T05:24:37.716Z,73.13
2018-12-17T05:27:06.451Z,76.23
2018-12-17T05:29:35.367Z,64.13
2018-12-17T05:32:04.099Z,67.73
2018-12-17T05:34:32.567Z,64.13
2018-12-17T05:37:01.535Z,70.10
2018-12-17T05:39:30.349Z,71.43
2018-12-17T05:41:59.425Z,74.03
2018-12-17T05:44:28.333Z,74.43
2018-12-17T05:46:57.257Z,63.23
2018-12-17T05:49:25.787Z,76.27
2018-12-17T05:51:54.754Z,68.93
2018-12-17T05:54:23.753Z,70.40
2018-12-17T05:56:52.422Z,70.20
2018-12-17T05:59:21.037Z,71.20
2018-12-17T06:01:49.926Z,74.07
2018-12-17T06:04:18.744Z,72.93
2018-12-17T06:06:47.524Z,80.07
2018-12-17T06:09:16.645Z,64.90
2018-12-17T06:11:45.491Z,75.33
2018-12-17T06:14:14.368Z,72.87
2018-12-17T06:16:43.215Z,63.17
2018-12-17T06:19:12.130Z,64.67
2018-12-17T06:21:40.881Z,63.90
2018-12-17T06:24:09.711Z,59.43
2018-12-17T06:26:38.849Z,63.67
2018-12-17T06:29:07.602Z,61.70
2018-12-17T06:31:36.492Z,55.97
2018-12-17T06:34:05.473Z,54.80
2018-12-17T06:36:34.190Z,58.40
2018-12-17T06:39:03.182Z,52.67
2018-12-17T06:41:32.030Z,53.97
2018-12-17T06:44:01.167Z,50.07
2018-12-17T06:46:29.756Z,52.93
2018-12-17T06:48:58.763Z,52.07
2018-12-17T06:51:27.879Z,51.63
2018-12-17T06:53:56.652Z,56.53
2018-12-17T06:56:25.551Z,53.73
2018-12-17T06:58:54.393Z,55.87
2018-12-17T07:01:23.280Z,54.33
2018-12-17T07:03:52.193Z,55.77
2018-12-17T07:06:21.107Z,53.67
2018-12-17T07:08:50.773Z,49.40
2018-12-17T07:11:20.688Z,46.17
2018-12-17T07:13:49.567Z,43.13
2018-12-17T07:16:18.511Z,42.93
2018-12-17T07:18:47.351Z,41.70
2018-12-17T07:21:16.673Z,42.60
2018-12-17T07:23:45.383Z,36.57
2018-12-17T07:26:14.910Z,36.73
2018-12-17T07:28:43.729Z,45.10
2018-12-17T07:31:13.426Z,40.93
2018-12-17T07:33:42.190Z,39.67
2018-12-17T07:36:10.913Z,44.53
2018-12-17T07:38:39.756Z,40.27
2018-12-17T07:41:09.015Z,41.00
2018-12-17T07:43:38.636Z,38.13
2018-12-17T07:46:07.523Z,39.90
2018-12-17T07:48:36.457Z,43.17
2018-12-17T07:51:05.425Z,38.87
2018-12-17T07:53:34.066Z,38.10
2018-12-17T07:56:03.085Z,39.37
2018-12-17T07:58:31.819Z,42.10
2018-12-17T08:01:00.459Z,40.17
2018-12-17T08:03:29.186Z,37.60
2018-12-17T08:05:57.990Z,40.30
2018-12-17T08:08:26.745Z,37.87
2018-12-17T08:10:55.690Z,41.27
2018-12-17T08:13:25.170Z,40.47
2018-12-17T08:15:53.823Z,36.60
2018-12-17T08:18:24.794Z,38.20
2018-12-17T08:20:53.823Z,40.47
2018-12-17T08:23:22.417Z,35.43
2018-12-17T08:25:51.167Z,33.77
2018-12-17T08:28:20.014Z,32.53
2018-12-17T08:30:48.901Z,35.00
2018-12-17T08:33:18.097Z,31.50
2018-12-17T08:35:47.371Z,33.63
2018-12-17T08:38:16.240Z,30.63
2018-12-17T08:40:45.707Z,35.77
2018-12-17T08:43:14.667Z,30.87
2018-12-17T08:45:43.655Z,31.97
2018-12-17T08:48:12.789Z,30.20
2018-12-17T08:50:42.200Z,30.17
2018-12-17T08:53:11.411Z,34.17
2018-12-17T08:55:40.414Z,27.27
2018-12-17T08:58:09.872Z,32.00
2018-12-17T09:00:38.937Z,28.07
2018-12-17T09:03:08.034Z,30.57
2018-12-17T09:05:37.286Z,27.67
2018-12-17T09:08:06.105Z,28.13
2018-12-17T09:10:35.105Z,30.93
2018-12-17T09:13:03.978Z,25.17
2018-12-17T09:15:32.957Z,28.93
2018-12-17T09:18:02.704Z,28.70
2018-12-17T09:20:31.574Z,27.17
2018-12-17T09:23:00.390Z,26.53
2018-12-17T09:25:29.155Z,29.03
2018-12-17T09:27:57.900Z,25.80
2018-12-17T09:30:26.871Z,24.30
2018-12-17T09:32:55.691Z,25.60
2018-12-17T09:35:24.589Z,24.37
2018-12-17T09:37:53.402Z,25.03
2018-12-17T09:40:22.305Z,25.17
2018-12-17T09:42:51.078Z,25.60
2018-12-17T09:45:19.918Z,24.13
2018-12-17T09:47:48.897Z,28.30
2018-12-17T09:50:18.172Z,24.63
2018-12-17T09:52:47.488Z,23.67
2018-12-17T09:55:16.487Z,22.23
2018-12-17T09:57:46.371Z,25.33
2018-12-17T10:00:15.190Z,26.13
2018-12-17T10:02:43.930Z,23.77
2018-12-17T10:05:12.842Z,21.70
2018-12-17T10:07:41.818Z,23.67
2018-12-17T10:10:10.381Z,21.33
2018-12-17T10:12:39.067Z,23.43
2018-12-17T10:15:08.262Z,23.03
2018-12-17T10:17:37.440Z,22.07
2018-12-17T10:20:06.740Z,23.00
2018-12-17T10:22:35.834Z,22.93
2018-12-17T10:25:05.086Z,20.27
2018-12-17T10:27:34.015Z,20.17
2018-12-17T10:30:03.226Z,22.43
2018-12-17T10:32:32.982Z,23.00
2018-12-17T10:35:01.643Z,21.47
2018-12-17T10:37:30.780Z,20.27
2018-12-17T10:39:59.426Z,18.20
2018-12-17T10:42:28.138Z,17.70
2018-12-17T10:44:56.898Z,20.83
2018-12-17T10:47:25.951Z,17.93
2018-12-17T10:49:54.975Z,16.87
2018-12-17T10:52:24.077Z,16.43
2018-12-17T10:54:52.846Z,15.03
2018-12-17T10:57:21.463Z,17.83
2018-12-17T10:59:50.226Z,14.60
2018-12-17T11:02:23.601Z,14.30
2018-12-17T11:04:57.829Z,16.00
2018-12-17T11:07:26.787Z,15.77
2018-12-17T11:09:55.591Z,16.80
2018-12-17T11:12:24.588Z,15.67
2018-12-17T11:14:53.824Z,13.43
2018-12-17T11:17:23.330Z,14.87
2018-12-17T11:19:52.228Z,14.33
2018-12-17T11:22:21.018Z,14.60
2018-12-17T11:24:49.822Z,17.13
2018-12-17T11:27:18.402Z,13.77
2018-12-17T11:29:47.330Z,13.70
2018-12-17T11:32:15.979Z,16.10
2018-12-17T11:34:44.948Z,14.23
2018-12-17T11:37:14.712Z,16.33
2018-12-17T11:39:43.701Z,13.80
2018-12-17T11:42:12.711Z,11.43
2018-12-17T11:44:41.487Z,11.00
2018-12-17T11:47:10.425Z,11.20
2018-12-17T11:49:39.136Z,13.13
2018-12-17T11:52:07.783Z,12.03
2018-12-17T11:54:36.567Z,11.83
2018-12-17T11:58:14.150Z,12.77
2018-12-17T12:00:56.905Z,12.13
2018-12-17T12:03:25.440Z,13.03
2018-12-17T12:05:53.884Z,13.83
2018-12-17T12:08:22.711Z,12.67
2018-12-17T12:10:51.199Z,11.63
2018-12-17T12:13:19.931Z,12.00
2018-12-17T12:15:48.805Z,11.63
2018-12-17T12:18:17.604Z,11.63
2018-12-17T12:20:46.566Z,12.17
2018-12-17T12:23:14.922Z,10.17
2018-12-17T12:25:43.767Z,12.27
2018-12-17T12:28:13.052Z,11.33
2018-12-17T12:30:41.738Z,10.80
2018-12-17T12:33:10.546Z,10.87
2018-12-17T12:35:41.097Z,12.50
2018-12-17T12:38:09.341Z,11.73
2018-12-17T12:40:37.543Z,11.67
2018-12-17T12:43:05.776Z,14.33
2018-12-17T12:45:34.105Z,11.80
2018-12-17T12:48:02.328Z,12.33
2018-12-17T12:50:31.497Z,12.13
2018-12-17T12:52:59.689Z,13.60
2018-12-17T12:55:28.872Z,13.30
2018-12-17T12:58:03.387Z,14.20
2018-12-17T13:00:27.440Z,13.83
2018-12-17T13:02:55.648Z,14.07
2018-12-17T13:05:24.890Z,11.77
2018-12-17T13:07:54.142Z,12.47
2018-12-17T13:10:22.462Z,13.27
2018-12-17T13:12:50.897Z,13.27
2018-12-17T13:15:19.172Z,13.43
2018-12-17T13:17:47.378Z,15.47
2018-12-17T13:20:15.599Z,14.77
2018-12-17T13:22:43.841Z,14.87
2018-12-17T13:25:17.397Z,16.33
2018-12-17T13:27:45.624Z,13.33
2018-12-17T13:30:13.945Z,15.00
2018-12-17T13:32:42.101Z,17.03
2018-12-17T13:35:10.402Z,15.17
2018-12-17T13:37:38.667Z,13.83
2018-12-17T13:40:08.998Z,16.23
2018-12-17T13:42:37.301Z,16.03
2018-12-17T13:45:06.310Z,14.87
2018-12-17T13:47:34.537Z,15.30
2018-12-17T13:50:08.283Z,16.97
2018-12-17T13:52:41.815Z,15.70
2018-12-17T13:55:10.102Z,15.20
2018-12-17T13:57:38.253Z,13.30
2018-12-17T14:00:08.609Z,13.80
2018-12-17T14:02:36.770Z,14.97
2018-12-17T14:05:05.409Z,14.70
2018-12-17T14:07:33.627Z,13.07
2018-12-17T14:10:07.435Z,13.37
2018-12-17T14:12:35.600Z,14.80
2018-12-17T14:15:04.114Z,15.23
2018-12-17T14:17:36.645Z,13.53
2018-12-17T14:20:13.169Z,12.63
2018-12-17T14:22:41.334Z,10.93
2018-12-17T14:25:09.653Z,11.77
2018-12-17T14:27:37.814Z,14.50
2018-12-17T14:30:07.801Z,13.47
2018-12-17T14:32:36.019Z,11.53
2018-12-17T14:35:04.935Z,13.30
2018-12-17T14:37:33.157Z,15.13
2018-12-17T14:40:01.319Z,12.20
2018-12-17T14:42:29.537Z,11.60
2018-12-17T14:44:57.759Z,11.93
2018-12-17T14:47:25.906Z,10.63
2018-12-17T14:49:54.065Z,14.53
2018-12-17T14:52:22.286Z,10.73
2018-12-17T14:54:50.485Z,12.83
2018-12-17T14:57:18.760Z,13.80
2018-12-17T14:59:46.913Z,12.53
2018-12-17T15:02:15.141Z,13.00
2018-12-17T15:04:43.282Z,13.50
2018-12-17T15:07:11.495Z,10.83
2018-12-17T15:09:39.654Z,11.47
2018-12-17T15:12:07.798Z,11.90
2018-12-17T15:14:36.048Z,14.03
2018-12-17T15:17:04.389Z,12.43
2018-12-17T15:19:32.563Z,14.40
2018-12-17T15:22:00.725Z,14.33
2018-12-17T15:24:28.894Z,14.33
2018-12-17T15:26:57.061Z,14.57
2018-12-17T15:29:25.294Z,14.93
2018-12-17T15:31:53.543Z,16.20
2018-12-17T15:34:21.701Z,15.53
2018-12-17T15:36:49.854Z,20.50
2018-12-17T15:39:18.177Z,18.07
2018-12-17T15:41:46.402Z,19.93
2018-12-17T15:44:14.570Z,15.80
2018-12-17T15:46:42.729Z,19.17
2018-12-17T15:49:10.925Z,20.60
2018-12-17T15:51:39.185Z,20.10
2018-12-17T15:54:07.361Z,21.50
2018-12-17T15:56:35.577Z,19.13
2018-12-17T15:59:03.912Z,20.40
2018-12-17T16:01:32.119Z,22.37
2018-12-17T16:04:00.299Z,19.80
2018-12-17T16:06:28.440Z,20.53
2018-12-17T16:08:56.610Z,20.47
2018-12-17T16:11:24.831Z,25.20
2018-12-17T16:13:53.050Z,22.87
2018-12-17T16:16:21.286Z,25.80
2018-12-17T16:18:49.450Z,24.17
2018-12-17T16:21:17.614Z,24.20
2018-12-17T16:23:45.769Z,24.90
2018-12-17T16:26:14.013Z,27.10
2018-12-17T16:28:42.163Z,27.83
2018-12-17T16:31:10.322Z,30.77
2018-12-17T16:33:38.466Z,32.23
2018-12-17T16:36:06.622Z,29.37
2018-12-17T16:38:34.777Z,31.93
2018-12-17T16:41:02.938Z,33.73
2018-12-17T16:43:31.156Z,30.33
2018-12-17T16:45:59.335Z,30.47
2018-12-17T16:48:27.506Z,32.13
2018-12-17T16:50:55.815Z,30.13
2018-12-17T16:53:24.041Z,31.53
2018-12-17T16:55:52.385Z,29.77
2018-12-17T16:58:20.528Z,32.67
2018-12-17T17:00:48.699Z,31.03
2018-12-17T17:03:16.941Z,33.70
2018-12-17T17:05:45.106Z,29.63
2018-12-17T17:08:13.263Z,36.23
2018-12-17T17:10:41.430Z,32.73
2018-12-17T17:15:48.250Z,32.20
2018-12-17T17:18:16.673Z,38.60
2018-12-17T17:20:45.216Z,35.13
2018-12-17T17:23:13.412Z,35.10
2018-12-17T17:25:42.803Z,37.27
2018-12-17T17:28:12.223Z,35.50
2018-12-17T17:30:41.564Z,37.67
2018-12-17T17:33:09.874Z,38.70
2018-12-17T17:35:38.247Z,35.20
2018-12-17T17:38:06.970Z,38.43
2018-12-17T17:40:36.900Z,40.90
2018-12-17T17:43:06.230Z,40.07
2018-12-17T17:45:35.204Z,38.73
2018-12-17T17:48:03.643Z,43.47
2018-12-17T17:50:36.103Z,41.80
2018-12-17T17:53:07.662Z,45.13
2018-12-17T17:55:36.958Z,45.93
2018-12-17T17:58:05.284Z,45.60
2018-12-17T18:00:34.514Z,47.50
2018-12-17T18:03:04.402Z,44.30
2018-12-17T18:05:32.702Z,49.47
2018-12-17T18:08:00.978Z,44.93
2018-12-17T18:10:29.268Z,41.50
2018-12-17T18:12:57.632Z,45.47
2018-12-17T18:15:30.682Z,46.43
2018-12-17T18:18:00.077Z,49.13
2018-12-17T18:20:29.458Z,50.27
2018-12-17T18:22:57.785Z,47.50
2018-12-17T18:25:26.007Z,47.17
2018-12-17T18:27:59.650Z,49.23
2018-12-17T18:30:28.018Z,45.93
2018-12-17T18:32:56.393Z,49.80
2018-12-17T18:35:24.577Z,48.27
2018-12-17T18:37:53.862Z,47.90
2018-12-17T18:40:23.249Z,47.40
2018-12-17T18:42:51.569Z,48.80
2018-12-17T18:45:20.782Z,46.87
2018-12-17T18:47:50.193Z,41.20
2018-12-17T18:50:18.526Z,42.53
2018-12-17T18:52:47.929Z,48.17
2018-12-17T18:55:16.314Z,45.27
2018-12-17T18:57:44.537Z,44.33
2018-12-17T19:00:13.111Z,45.63
2018-12-17T19:02:41.345Z,42.20
2018-12-17T19:05:09.494Z,46.27
2018-12-17T19:07:37.738Z,44.93
2018-12-17T19:10:06.916Z,43.33
2018-12-17T19:12:35.171Z,44.17
2018-12-17T19:15:03.590Z,42.67
2018-12-17T19:17:31.765Z,43.97
2018-12-17T19:20:00.017Z,40.93
2018-12-17T19:22:28.281Z,42.67
2018-12-17T19:24:56.470Z,45.77
2018-12-17T19:27:24.653Z,42.77
2018-12-17T19:29:52.812Z,43.00
2018-12-17T19:32:20.981Z,40.57
2018-12-17T19:34:49.128Z,42.33
2018-12-17T19:37:17.392Z,43.10
2018-12-17T19:39:45.550Z,40.57
2018-12-17T19:42:13.745Z,41.83
2018-12-17T19:44:42.506Z,43.40
2018-12-17T19:47:10.648Z,45.23
2018-12-17T19:49:38.821Z,44.67
2018-12-17T19:52:07.146Z,45.90
2018-12-17T19:54:35.325Z,45.53
2018-12-17T19:57:03.562Z,45.10
2018-12-17T19:59:31.709Z,44.40
2018-12-17T20:01:59.927Z,43.30
2018-12-17T20:04:28.105Z,46.23
2018-12-17T20:06:56.267Z,44.10
2018-12-17T20:09:24.522Z,44.80
2018-12-17T20:11:52.705Z,45.40
2018-12-17T20:14:20.918Z,47.10
2018-12-17T20:16:49.175Z,47.50
2018-12-17T20:19:17.333Z,49.63
2018-12-17T20:21:45.499Z,47.23
2018-12-17T20:24:13.844Z,45.33
2018-12-17T20:26:42.102Z,47.93
2018-12-17T20:29:10.353Z,45.77
2018-12-17T20:31:38.626Z,55.10
2018-12-17T20:34:06.868Z,46.90
2018-12-17T20:36:35.102Z,46.23
2018-12-17T20:39:05.118Z,49.57
2018-12-17T20:41:33.299Z,45.03
2018-12-17T20:44:01.477Z,44.83
2018-12-17T20:46:29.729Z,48.50
2018-12-17T20:48:57.903Z,51.43
2018-12-17T20:51:26.142Z,48.50
2018-12-17T20:53:56.128Z,51.37
2018-12-17T20:56:24.324Z,50.20
2018-12-17T20:58:52.518Z,50.50
2018-12-17T21:01:20.660Z,49.97
2018-12-17T21:03:48.816Z,53.23
2018-12-17T21:06:17.074Z,52.97
2018-12-17T21:08:45.268Z,48.13
2018-12-17T21:11:13.484Z,50.00
2018-12-17T21:13:41.743Z,52.93
2018-12-17T21:16:09.897Z,51.80
2018-12-17T21:18:38.171Z,49.50
2018-12-17T21:21:06.342Z,52.90
2018-12-17T21:23:34.863Z,53.57
2018-12-17T21:26:03.177Z,53.43
2018-12-17T21:28:31.975Z,50.17
2018-12-17T21:31:00.139Z,54.27
2018-12-17T21:33:28.659Z,55.03
2018-12-17T21:35:56.849Z,56.20
2018-12-17T21:38:25.024Z,57.83
2018-12-17T21:40:53.290Z,62.57
2018-12-17T21:43:21.550Z,56.30
2018-12-17T21:45:49.832Z,53.83
2018-12-17T21:48:17.977Z,60.70
2018-12-17T21:50:46.156Z,60.00
2018-12-17T21:53:14.302Z,61.63
2018-12-17T21:55:42.652Z,54.70
2018-12-17T21:58:10.951Z,55.87
2018-12-17T22:00:39.110Z,53.97
2018-12-17T22:03:13.097Z,55.30
2018-12-17T22:05:37.444Z,58.10
2018-12-17T22:08:05.741Z,62.30
2018-12-17T22:10:34.945Z,61.67
2018-12-17T22:13:03.691Z,67.37
2018-12-17T22:15:32.153Z,64.87
2018-12-17T22:18:00.419Z,60.40
2018-12-17T22:20:28.743Z,56.13
2018-12-17T22:22:56.916Z,58.70
2018-12-17T22:25:25.150Z,61.70
2018-12-17T22:27:53.430Z,58.70
2018-12-17T22:30:21.909Z,56.70
2018-12-17T22:32:50.101Z,58.80
2018-12-17T22:37:52.988Z,54.33
2018-12-17T22:40:21.263Z,56.87
2018-12-17T22:42:49.421Z,59.37
2018-12-17T22:45:17.663Z,57.27
2018-12-17T22:47:45.881Z,57.83
2018-12-17T22:50:14.067Z,57.27
2018-12-17T22:52:42.424Z,61.13
2018-12-17T22:55:10.765Z,65.87
2018-12-17T22:57:38.915Z,60.43
2018-12-17T23:00:08.845Z,63.47
2018-12-17T23:02:37.163Z,59.30
2018-12-17T23:05:05.529Z,58.93
2018-12-17T23:07:33.778Z,58.13
2018-12-17T23:10:13.337Z,58.60
2018-12-17T23:12:52.946Z,60.67
2018-12-17T23:15:32.558Z,57.30
2018-12-17T23:17:59.852Z,56.73
2018-12-17T23:20:28.197Z,61.60
2018-12-17T23:22:56.912Z,63.20
2018-12-17T23:25:25.143Z,60.40
2018-12-17T23:27:53.438Z,61.57
2018-12-17T23:30:23.189Z,63.33
2018-12-17T23:32:51.461Z,63.30
2018-12-17T23:35:19.761Z,64.50
2018-12-17T23:37:51.119Z,63.73
2018-12-17T23:40:19.436Z,62.90
2018-12-17T23:42:48.450Z,62.73
2018-12-17T23:45:20.177Z,69.47
2018-12-17T23:47:49.270Z,64.97
2018-12-17T23:50:18.442Z,67.83
2018-12-17T23:52:48.395Z,58.47
2018-12-17T23:55:17.491Z,65.00
2018-12-17T23:57:46.462Z,62.43
